Time;durP1;ratioP1;P1;durP2;ratioP2;P2;SDS_P1;SDS_P2;PMS_P1;PMS_P2;Temp;Humidity;BMP_temperature;BMP_pressure;BME280_temperature;BME280_humidity;BME280_pressure;Samples;Min_cycle;Max_cycle;Signal;HPM_P1;HPM_P2
2022/12/03 00:01:37;;;;;;;58.97;22.98;;;;;;;-0.48;100.00;101357.09;5095296;28;20074;-76
2022/12/03 00:04:03;;;;;;;52.63;21.10;;;;;;;-0.48;100.00;101354.28;5096789;28;20024;-76
2022/12/03 00:06:30;;;;;;;58.08;21.27;;;;;;;-0.48;100.00;101362.72;5096853;28;20016;-76
2022/12/03 00:08:57;;;;;;;51.83;20.05;;;;;;;-0.49;100.00;101356.28;5096749;28;20040;-76
2022/12/03 00:11:23;;;;;;;51.95;21.95;;;;;;;-0.55;100.00;101343.81;5096931;28;20040;-76
2022/12/03 00:13:50;;;;;;;53.08;21.25;;;;;;;-0.55;100.00;101357.84;5096719;28;20380;-75
2022/12/03 00:16:16;;;;;;;51.33;22.13;;;;;;;-0.53;100.00;101355.47;5078832;28;20473;-76
2022/12/03 00:18:44;;;;;;;45.97;20.70;;;;;;;-0.47;100.00;101353.09;5096878;28;20393;-76
2022/12/03 00:21:09;;;;;;;55.10;21.40;;;;;;;-0.52;100.00;101345.81;5096927;28;20475;-76
2022/12/03 00:23:36;;;;;;;61.40;22.52;;;;;;;-0.47;100.00;101356.69;5073508;28;20078;-75
2022/12/03 00:26:02;;;;;;;49.80;20.70;;;;;;;-0.50;100.00;101360.28;5061598;28;20020;-76
2022/12/03 00:28:29;;;;;;;52.45;20.85;;;;;;;-0.54;100.00;101351.03;5078594;28;20051;-77
2022/12/03 00:30:54;;;;;;;52.70;22.05;;;;;;;-0.55;100.00;101349.44;5095211;28;20028;-76
2022/12/03 00:33:20;;;;;;;59.33;23.45;;;;;;;-0.53;100.00;101349.06;5095418;28;20096;-76
2022/12/03 00:35:47;;;;;;;64.68;23.88;;;;;;;-0.54;100.00;101344.63;5095571;28;20051;-77
2022/12/03 00:38:13;;;;;;;68.60;22.42;;;;;;;-0.50;100.00;101349.06;5096587;28;20119;-76
2022/12/03 00:40:40;;;;;;;48.92;20.63;;;;;;;-0.49;100.00;101342.25;5096489;28;20163;-76
2022/12/03 00:43:07;;;;;;;58.25;21.95;;;;;;;-0.55;100.00;101335.41;5095069;28;20110;-76
2022/12/03 00:45:34;;;;;;;57.65;22.27;;;;;;;-0.49;100.00;101345.06;5096240;28;20041;-76
2022/12/03 00:48:00;;;;;;;68.60;23.00;;;;;;;-0.54;100.00;101342.63;5077373;28;20443;-76
2022/12/03 00:50:28;;;;;;;49.75;21.52;;;;;;;-0.52;100.00;101340.22;5096282;28;20016;-76
2022/12/03 00:52:54;;;;;;;64.90;23.60;;;;;;;-0.53;100.00;101349.84;5061102;28;20028;-76
2022/12/03 00:55:20;;;;;;;57.70;22.92;;;;;;;-0.49;100.00;101344.25;5077845;28;20032;-76
2022/12/03 00:57:47;;;;;;;55.03;23.35;;;;;;;-0.48;100.00;101337.44;5094693;28;20401;-76
2022/12/03 01:00:15;;;;;;;56.42;22.95;;;;;;;-0.50;100.00;101340.63;5095886;28;20102;-76
2022/12/03 01:02:42;;;;;;;57.35;25.02;;;;;;;-0.47;100.00;101339.84;5096149;28;20024;-77
2022/12/03 01:05:09;;;;;;;58.63;21.13;;;;;;;-0.48;100.00;101331.84;5077576;28;20032;-77
2022/12/03 01:07:35;;;;;;;51.58;23.13;;;;;;;-0.45;100.00;101339.47;5095765;28;20028;-77
2022/12/03 01:10:03;;;;;;;47.95;21.80;;;;;;;-0.44;100.00;101335.47;5096152;28;20031;-77
2022/12/03 01:12:30;;;;;;;54.25;22.13;;;;;;;-0.44;100.00;101335.47;5093734;28;20088;-77
2022/12/03 01:14:56;;;;;;;49.40;20.42;;;;;;;-0.45;100.00;101343.06;5095597;28;20020;-76
2022/12/03 01:17:23;;;;;;;48.75;20.88;;;;;;;-0.46;100.00;101351.88;5095456;28;20038;-77
2022/12/03 01:19:51;;;;;;;49.45;22.20;;;;;;;-0.48;100.00;101349.50;5095741;28;20503;-77
2022/12/03 01:22:24;;;;;;;53.47;20.48;;;;;;;-0.49;100.00;101339.44;5094295;28;20023;-77
2022/12/03 01:24:51;;;;;;;51.85;21.20;;;;;;;-0.48;100.00;101332.66;5094166;28;20020;-77
2022/12/03 01:27:17;;;;;;;49.53;21.92;;;;;;;-0.44;100.00;101333.47;5077416;28;20024;-77
2022/12/03 01:29:44;;;;;;;49.45;18.90;;;;;;;-0.40;100.00;101334.28;5077374;28;20035;-77
2022/12/03 01:32:15;;;;;;;60.15;22.05;;;;;;;-0.41;100.00;101334.66;5077066;28;20039;-77
2022/12/03 01:34:59;;;;;;;;;;;;;;;-0.45;100.00;101340.28;5095987;28;20103;-75
2022/12/03 01:37:25;;;;;;;51.40;19.98;;;;;;;-0.48;100.00;101326.22;5095277;28;19931;-76
2022/12/03 01:39:52;;;;;;;48.92;20.98;;;;;;;-0.45;100.00;101337.47;5095234;28;20051;-76
2022/12/03 01:42:20;;;;;;;53.95;20.35;;;;;;;-0.45;100.00;101345.06;5060513;28;20032;-75
2022/12/03 01:44:47;;;;;;;47.67;20.15;;;;;;;-0.44;100.00;101335.47;5077213;28;20118;-76
2022/12/03 01:47:16;;;;;;;48.97;20.75;;;;;;;-0.47;100.00;101337.03;5060273;28;20028;-77
2022/12/03 01:49:53;;;;;;;48.85;20.98;;;;;;;-0.40;100.00;101333.47;5060589;28;20102;-76
2022/12/03 01:52:21;;;;;;;51.72;20.55;;;;;;;-0.46;100.00;101338.66;5093758;28;20089;-76
2022/12/03 01:54:50;;;;;;;59.03;23.63;;;;;;;-0.48;100.00;101331.84;5077076;28;20136;-75
2022/12/03 01:57:42;;;;;;;52.60;19.98;;;;;;;-0.52;100.00;101329.00;5094885;28;20158;-76
2022/12/03 02:00:27;;;;;;;50.00;20.83;;;;;;;-0.52;100.00;101328.22;5091556;28;20465;-77
2022/12/03 02:02:59;;;;;;;51.92;19.95;;;;;;;-0.51;100.00;101333.41;5092364;28;20024;-76
2022/12/03 02:05:30;;;;;;;61.30;22.33;;;;;;;-0.48;100.00;101326.22;5089238;28;20243;-76
2022/12/03 02:07:58;;;;;;;57.08;21.15;;;;;;;-0.49;100.00;101321.81;5075517;28;20036;-76
2022/12/03 02:10:34;;;;;;;53.35;20.85;;;;;;;-0.46;100.00;101321.00;5092190;28;20024;-76
2022/12/03 02:13:22;;;;;;;63.05;22.42;;;;;;;-0.47;100.00;101322.22;5093177;28;20056;-76
2022/12/03 02:15:50;;;;;;;54.60;21.70;;;;;;;-0.47;100.00;101317.38;5055422;28;20040;-76
2022/12/03 02:18:37;;;;;;;53.03;20.15;;;;;;;-0.45;100.00;101325.44;5075252;28;20027;-77
2022/12/03 02:21:27;;;;;;;53.53;22.02;;;;;;;-0.46;100.00;101321.81;5093302;28;20405;-75
2022/12/03 02:24:17;;;;;;;55.08;21.92;;;;;;;-0.44;100.00;101322.25;5094043;28;20073;-76
2022/12/03 02:26:50;;;;;;;58.92;21.85;;;;;;;-0.45;100.00;101320.63;5094589;28;20031;-75
2022/12/03 02:29:19;;;;;;;55.97;20.65;;;;;;;-0.46;100.00;101318.19;5093408;28;20035;-76
2022/12/03 02:31:52;;;;;;;56.20;22.90;;;;;;;-0.42;100.00;101328.25;5093692;28;20032;-75
2022/12/03 02:34:38;;;;;;;52.92;20.35;;;;;;;-0.44;100.00;101318.63;5076088;28;20026;-75
2022/12/03 02:37:14;;;;;;;51.72;20.85;;;;;;;-0.44;100.00;101329.84;5093070;28;20483;-76
2022/12/03 02:39:42;;;;;;;53.45;20.75;;;;;;;-0.46;100.00;101319.00;5093106;28;20055;-75
2022/12/03 02:44:52;;;;;;;56.40;22.83;;;;;;;-0.51;100.00;101321.38;5078853;28;20133;-76
2022/12/03 02:47:20;;;;;;;57.78;21.55;;;;;;;-0.49;100.00;101321.81;5093800;28;20020;-76
2022/12/03 02:49:47;;;;;;;54.50;21.13;;;;;;;-0.52;100.00;101329.00;5076081;28;20094;-76
2022/12/03 02:52:21;;;;;;;53.47;20.35;;;;;;;-0.48;100.00;101318.63;5059134;28;20059;-76
2022/12/03 02:54:47;;;;;;;56.25;22.73;;;;;;;-0.48;100.00;101329.84;5094140;28;20031;-75
2022/12/03 02:57:15;;;;;;;56.95;23.13;;;;;;;-0.48;100.00;101321.41;5093828;28;20024;-75
2022/12/03 02:59:43;;;;;;;56.30;22.88;;;;;;;-0.48;100.00;101318.63;5092413;28;20028;-75
2022/12/03 03:02:19;;;;;;;55.42;23.55;;;;;;;-0.47;100.00;101317.38;5092393;28;20027;-75
2022/12/03 03:04:45;;;;;;;53.70;21.65;;;;;;;-0.46;100.00;101321.00;5092633;28;20036;-76
2022/12/03 03:07:19;;;;;;;60.78;23.08;;;;;;;-0.48;100.00;101320.59;5092128;28;20390;-76
2022/12/03 03:09:53;;;;;;;53.88;20.15;;;;;;;-0.51;100.00;101321.38;5092360;28;20062;-78
2022/12/03 03:12:20;;;;;;;52.72;20.58;;;;;;;-0.49;100.00;101319.81;5075159;28;20052;-77
2022/12/03 03:14:45;;;;;;;61.58;23.33;;;;;;;-0.47;100.00;101314.59;5093805;28;20032;-77
2022/12/03 03:17:12;;;;;;;55.78;22.98;;;;;;;-0.45;100.00;101312.19;5075571;28;20385;-77
2022/12/03 03:19:38;;;;;;;54.20;21.83;;;;;;;-0.47;100.00;101313.81;5093620;28;20024;-78
2022/12/03 03:22:05;;;;;;;56.90;20.90;;;;;;;-0.45;100.00;101312.19;5092643;28;20020;-77
2022/12/03 03:24:31;;;;;;;54.80;23.10;;;;;;;-0.50;100.00;101311.75;5093448;28;20039;-78
2022/12/03 03:26:57;;;;;;;55.90;22.92;;;;;;;-0.43;100.00;101309.00;5093663;28;20040;-78
2022/12/03 03:29:23;;;;;;;52.90;20.63;;;;;;;-0.40;100.00;101302.59;5093435;28;20083;-76
2022/12/03 03:31:50;;;;;;;45.03;19.55;;;;;;;-0.42;100.00;101294.56;5093734;28;20035;-76
2022/12/03 03:34:18;;;;;;;53.63;20.30;;;;;;;-0.42;100.00;101300.16;5091163;28;20491;-76
2022/12/03 03:36:45;;;;;;;58.25;22.05;;;;;;;-0.43;100.00;101289.34;5093468;28;20028;-76
2022/12/03 03:39:10;;;;;;;49.08;22.55;;;;;;;-0.41;100.00;101296.16;5075481;28;20044;-76
2022/12/03 03:41:41;;;;;;;54.40;21.27;;;;;;;-0.43;100.00;101294.97;5075557;28;20089;-76
2022/12/03 03:44:07;;;;;;;56.00;20.60;;;;;;;-0.44;100.00;101294.16;5075633;28;20032;-77
2022/12/03 03:46:33;;;;;;;52.38;20.73;;;;;;;-0.42;100.00;101293.78;5092334;28;20464;-76
2022/12/03 03:49:09;;;;;;;55.33;21.33;;;;;;;-0.45;100.00;101288.94;5093588;28;20085;-76
2022/12/03 03:51:36;;;;;;;50.75;21.70;;;;;;;-0.45;100.00;101286.94;5092402;28;20038;-78
2022/12/03 03:54:04;;;;;;;47.08;20.95;;;;;;;-0.44;100.00;101277.31;5091913;28;20093;-77
2022/12/03 03:56:31;;;;;;;51.47;20.90;;;;;;;-0.46;100.00;101276.91;5075264;28;20039;-77
2022/12/03 03:58:57;;;;;;;52.92;21.27;;;;;;;-0.43;100.00;101276.13;5092168;28;20043;-77
2022/12/03 04:01:24;;;;;;;56.88;20.48;;;;;;;-0.43;100.00;101267.72;5075217;28;20068;-77
2022/12/03 04:03:52;;;;;;;50.70;21.38;;;;;;;-0.41;100.00;101279.31;5093213;28;20070;-78
2022/12/03 04:06:18;;;;;;;46.50;20.30;;;;;;;-0.39;100.00;101276.13;5092079;28;20038;-77
2022/12/03 04:08:45;;;;;;;49.38;20.88;;;;;;;-0.40;100.00;101274.53;5093121;28;20032;-77
2022/12/03 04:13:56;;;;;;;42.53;18.98;;;;;;;-0.41;100.00;101270.91;5093135;28;20058;-77
2022/12/03 04:16:23;;;;;;;54.00;21.00;;;;;;;-0.39;100.00;101281.75;5075159;28;20031;-77
2022/12/03 04:18:49;;;;;;;49.10;21.15;;;;;;;-0.43;100.00;101276.13;5074946;28;20040;-77
2022/12/03 04:24:04;;;;;;;43.28;18.52;;;;;;;-0.35;100.00;101274.16;5081864;28;20047;-77
2022/12/03 04:29:16;;;;;;;52.60;21.25;;;;;;;-0.38;100.00;101275.75;5096854;28;20093;-77
2022/12/03 04:37:11;;;;;;;54.90;21.35;;;;;;;-0.34;100.00;101268.16;5096441;28;20035;-77
2022/12/03 04:39:38;;;;;;;50.03;21.10;;;;;;;-0.42;100.00;101268.50;5096459;28;20024;-77
2022/12/03 04:42:05;;;;;;;55.53;21.58;;;;;;;-0.38;100.00;101277.75;5061574;28;20497;-77
2022/12/03 04:44:32;;;;;;;55.55;21.73;;;;;;;-0.43;100.00;101284.56;5096401;28;20032;-78
2022/12/03 04:47:03;;;;;;;50.38;22.13;;;;;;;-0.45;100.00;101280.50;5061455;28;20028;-78
2022/12/03 04:49:29;;;;;;;56.70;22.42;;;;;;;-0.46;100.00;101278.91;5078421;28;20111;-78
2022/12/03 04:51:55;;;;;;;55.47;23.55;;;;;;;-0.45;100.00;101278.50;5078132;28;20062;-78
2022/12/03 04:54:22;;;;;;;57.95;21.13;;;;;;;-0.43;100.00;101276.13;5078073;28;20028;-78
2022/12/03 04:56:49;;;;;;;54.22;21.98;;;;;;;-0.40;100.00;101280.94;5078073;28;20070;-77
2022/12/03 04:59:14;;;;;;;61.10;22.90;;;;;;;-0.40;100.00;101269.72;5078281;28;20381;-78
2022/12/03 05:01:42;;;;;;;55.22;22.05;;;;;;;-0.33;100.00;101285.81;5096149;28;20020;-76
2022/12/03 05:04:07;;;;;;;49.30;21.42;;;;;;;-0.32;100.00;101276.16;5060920;28;20027;-78
2022/12/03 05:06:34;;;;;;;54.63;22.95;;;;;;;-0.32;100.00;101271.34;5095781;28;20024;-76
2022/12/03 05:08:59;;;;;;;53.55;21.90;;;;;;;-0.29;100.00;101279.00;5077572;28;20024;-78
2022/12/03 05:11:25;;;;;;;58.03;24.30;;;;;;;-0.33;100.00;101280.19;5095813;28;20048;-78
2022/12/03 05:13:52;;;;;;;54.17;21.05;;;;;;;-0.31;100.00;101275.75;5095797;28;20031;-78
2022/12/03 05:16:22;;;;;;;62.13;23.65;;;;;;;-0.30;100.00;101279.38;5077822;28;20055;-78
2022/12/03 05:18:47;;;;;;;54.35;23.48;;;;;;;-0.29;100.00;101275.38;5077796;28;20173;-77
2022/12/03 05:21:19;;;;;;;53.75;22.55;;;;;;;-0.28;100.00;101275.00;5060870;28;20449;-77
2022/12/03 05:23:44;;;;;;;57.45;23.23;;;;;;;-0.31;100.00;101267.34;5095743;28;20472;-75
2022/12/03 05:26:10;;;;;;;58.97;22.83;;;;;;;-0.29;100.00;101269.75;5077423;28;20028;-77
2022/12/03 05:28:36;;;;;;;60.65;23.98;;;;;;;-0.27;100.00;101270.97;5060847;28;20024;-77
2022/12/03 05:31:04;;;;;;;55.95;23.02;;;;;;;-0.27;100.00;101272.97;5095439;28;20440;-79
2022/12/03 05:33:32;;;;;;;57.20;23.30;;;;;;;-0.26;100.00;101269.78;5077039;28;20043;-78
2022/12/03 05:35:58;;;;;;;58.72;23.70;;;;;;;-0.28;100.00;101262.97;5077133;28;20016;-77
2022/12/03 05:38:32;;;;;;;58.28;23.23;;;;;;;-0.24;100.00;101271.38;5095509;28;20038;-77
2022/12/03 05:41:00;;;;;;;56.28;23.08;;;;;;;-0.28;100.00;101263.75;5095179;28;20024;-77
2022/12/03 05:43:26;;;;;;;51.90;22.08;;;;;;;-0.29;100.00;101273.38;5095086;28;20023;-77
2022/12/03 05:45:54;;;;;;;58.45;26.05;;;;;;;-0.32;100.00;101268.53;5077326;28;20418;-77
2022/12/03 05:48:19;;;;;;;62.25;23.92;;;;;;;-0.33;100.00;101264.16;5077160;28;20464;-77
2022/12/03 05:50:45;;;;;;;59.10;23.33;;;;;;;-0.29;100.00;101269.75;5091326;28;20036;-77
2022/12/03 05:53:15;;;;;;;61.80;24.23;;;;;;;-0.27;100.00;101270.97;5077087;28;20358;-77
2022/12/03 05:55:42;;;;;;;65.72;24.88;;;;;;;-0.24;100.00;101274.19;5093960;28;20028;-76
2022/12/03 05:58:16;;;;;;;64.90;23.60;;;;;;;-0.20;100.00;101269.38;5095168;28;20027;-76
2022/12/03 06:00:42;;;;;;;58.30;21.98;;;;;;;-0.20;100.00;101267.38;5094891;28;20028;-76
2022/12/03 06:03:09;;;;;;;58.72;21.38;;;;;;;-0.20;100.00;101267.38;5093404;28;20389;-76
2022/12/03 06:05:35;;;;;;;61.22;23.83;;;;;;;-0.23;100.00;101265.38;5076881;28;20036;-76
2022/12/03 06:08:01;;;;;;;53.10;21.38;;;;;;;-0.23;100.00;101268.19;5095052;28;20034;-77
2022/12/03 06:10:26;;;;;;;64.68;23.65;;;;;;;-0.26;100.00;101269.78;5094775;28;20487;-75
2022/12/03 06:12:53;;;;;;;63.67;24.58;;;;;;;-0.23;100.00;101265.38;5093094;28;20056;-77
2022/12/03 06:15:20;;;;;;;52.97;22.23;;;;;;;-0.17;100.00;101274.22;5094649;28;20500;-77
2022/12/03 06:17:46;;;;;;;60.85;24.15;;;;;;;-0.18;100.00;101276.25;5090245;28;20028;-77
2022/12/03 06:20:18;;;;;;;67.40;24.48;;;;;;;-0.14;100.00;101279.84;5093577;28;20047;-77
2022/12/03 06:22:44;;;;;;;56.72;22.25;;;;;;;-0.12;100.00;101282.25;5059995;28;20473;-77
2022/12/03 06:25:10;;;;;;;57.03;22.48;;;;;;;-0.14;100.00;101282.66;5076027;28;20082;-77
2022/12/03 06:27:36;;;;;;;54.60;22.33;;;;;;;-0.12;100.00;101285.06;5094436;28;20031;-77
2022/12/03 06:30:04;;;;;;;63.67;23.42;;;;;;;-0.12;100.00;101279.44;5076010;28;20024;-77
2022/12/03 06:32:31;;;;;;;64.05;24.13;;;;;;;-0.10;100.00;101282.66;5059553;28;20036;-77
2022/12/03 06:34:58;;;;;;;57.42;24.77;;;;;;;-0.13;100.00;101278.66;5094411;28;20022;-77
2022/12/03 06:37:24;;;;;;;56.55;21.88;;;;;;;-0.11;100.00;101270.63;5094362;28;20078;-76
2022/12/03 06:39:50;;;;;;;63.70;24.02;;;;;;;-0.12;100.00;101279.44;5094320;28;20024;-78
2022/12/03 06:42:15;;;;;;;63.60;24.50;;;;;;;-0.14;100.00;101267.81;5076223;28;20057;-79
2022/12/03 06:44:42;;;;;;;61.10;24.83;;;;;;;-0.14;100.00;101270.63;5093441;28;20035;-76
2022/12/03 06:47:08;;;;;;;64.18;22.42;;;;;;;-0.17;100.00;101265.78;5094160;28;20028;-76
2022/12/03 06:49:34;;;;;;;58.55;23.17;;;;;;;-0.21;100.00;101271.38;5075453;28;20032;-77
2022/12/03 06:52:01;;;;;;;53.13;23.38;;;;;;;-0.23;100.00;101275.81;5076010;28;20086;-76
2022/12/03 06:54:27;;;;;;;63.22;23.33;;;;;;;-0.27;100.00;101270.16;5092276;28;20107;-77
2022/12/03 06:56:53;;;;;;;57.60;25.33;;;;;;;-0.22;100.00;101277.44;5072270;28;20115;-77
2022/12/03 06:59:21;;;;;;;54.30;23.60;;;;;;;-0.22;100.00;101275.41;5058946;28;20119;-77
2022/12/03 07:01:46;;;;;;;66.03;25.63;;;;;;;-0.24;100.00;101271.38;5093754;28;20031;-76
2022/12/03 07:04:14;;;;;;;55.53;23.20;;;;;;;-0.27;100.00;101270.97;5093969;28;20024;-74
2022/12/03 07:06:42;;;;;;;54.35;22.20;;;;;;;-0.24;100.00;101275.00;5094049;28;20070;-78
2022/12/03 07:09:08;;;;;;;58.67;23.58;;;;;;;-0.26;100.00;101272.59;5094300;28;20028;-75
2022/12/03 07:11:41;;;;;;;57.80;23.75;;;;;;;-0.27;100.00;101268.16;5074573;28;20032;-76
2022/12/03 07:14:10;;;;;;;61.42;25.50;;;;;;;-0.30;100.00;101256.91;5076446;28;20550;-74
2022/12/03 07:16:37;;;;;;;60.50;23.65;;;;;;;-0.23;100.00;101268.19;5076234;28;20028;-76
2022/12/03 07:19:04;;;;;;;63.00;24.77;;;;;;;-0.22;100.00;101269.00;5075610;28;20055;-77
2022/12/03 07:21:31;;;;;;;57.47;23.33;;;;;;;-0.24;100.00;101265.78;5075612;28;20093;-75
2022/12/03 07:23:56;;;;;;;73.00;25.00;;;;;;;-0.21;100.00;101271.38;5092291;28;20028;-74
2022/12/03 07:26:28;;;;;;;67.68;24.70;;;;;;;-0.20;100.00;101266.59;5074919;28;20088;-74
2022/12/03 07:28:53;;;;;;;69.60;24.27;;;;;;;-0.20;100.00;101256.16;5092767;28;20040;-76
2022/12/03 07:31:20;;;;;;;63.72;24.33;;;;;;;-0.16;100.00;101265.41;5074407;28;20379;-77
2022/12/03 07:33:45;;;;;;;61.58;24.73;;;;;;;-0.12;100.00;101260.59;5092543;28;20376;-77
2022/12/03 07:36:10;;;;;;;60.97;25.10;;;;;;;-0.08;100.00;101261.44;5092552;28;20024;-76
2022/12/03 07:38:36;;;;;;;64.57;25.02;;;;;;;-0.03;100.00;101263.84;5092101;28;20039;-80
2022/12/03 07:41:01;;;;;;;69.68;25.05;;;;;;;0.01;100.00;101261.84;5090754;28;20114;-77
2022/12/03 07:43:28;;;;;;;58.40;24.00;;;;;;;0.07;100.00;101267.88;5091913;28;20472;-76
2022/12/03 07:45:56;;;;;;;57.05;23.50;;;;;;;0.08;100.00;101269.47;5074562;28;20032;-77
2022/12/03 07:48:22;;;;;;;52.63;23.77;;;;;;;0.06;100.00;101269.09;5093606;28;20042;-76
2022/12/03 07:50:48;;;;;;;62.25;24.25;;;;;;;0.08;100.00;101266.66;5075523;28;20052;-79
2022/12/03 07:53:16;;;;;;;73.63;24.02;;;;;;;0.11;100.00;101266.69;5093502;28;20070;-79
2022/12/03 07:55:42;;;;;;;58.47;22.80;;;;;;;0.15;100.00;101255.47;5093264;28;20032;-80
2022/12/03 07:58:09;;;;;;;53.78;22.83;;;;;;;0.18;100.00;101254.66;5095898;28;20043;-81
2022/12/03 08:00:34;;;;;;;57.50;23.65;;;;;;;0.22;100.00;101247.03;5097401;28;20137;-80
2022/12/03 08:03:00;;;;;;;63.47;25.17;;;;;;;0.18;100.00;101246.22;5097187;28;20016;-82
2022/12/03 08:05:28;;;;;;;55.85;23.00;;;;;;;0.30;100.00;101253.47;5095931;28;20074;-80
2022/12/03 08:08:00;;;;;;;62.40;22.45;;;;;;;0.31;100.00;101253.09;5096870;28;20020;-78
2022/12/03 08:10:27;;;;;;;62.03;25.52;;;;;;;0.34;100.00;101245.84;5095709;28;20457;-80
2022/12/03 08:12:55;;;;;;;61.08;22.70;;;;;;;0.38;100.00;101253.06;5078428;28;20055;-83
2022/12/03 08:15:23;;;;;;;61.67;26.15;;;;;;;0.40;100.00;101250.69;5079233;28;20077;-78
2022/12/03 08:18:16;;;;;;;66.65;24.90;;;;;;;0.50;100.00;101255.50;5062167;28;20024;-79
2022/12/03 08:20:47;;;;;;;67.05;23.63;;;;;;;0.52;100.00;101247.47;5099900;28;20460;-74
2022/12/03 08:23:17;;;;;;;56.97;22.65;;;;;;;0.56;100.00;101247.47;5094882;28;20089;-73
2022/12/03 08:25:43;;;;;;;58.15;25.48;;;;;;;0.57;100.00;101244.25;5077799;28;20111;-78
2022/12/03 08:28:14;;;;;;;62.55;24.63;;;;;;;0.60;100.00;101248.28;5096391;28;20469;-77
2022/12/03 08:30:43;;;;;;;77.70;28.42;;;;;;;0.70;100.00;101241.84;5092343;28;20024;-74
2022/12/03 08:33:19;;;;;;;75.20;27.10;;;;;;;0.81;100.00;101242.63;5089236;28;20522;-74
2022/12/03 08:35:49;;;;;;;62.47;24.60;;;;;;;0.87;100.00;101229.78;5099779;28;20464;-74
2022/12/03 08:38:21;;;;;;;52.53;23.70;;;;;;;0.93;100.00;101221.72;5065781;28;20066;-74
2022/12/03 08:40:50;;;;;;;73.55;25.17;;;;;;;0.95;100.00;101225.75;5055909;28;20036;-76
2022/12/03 08:43:26;;;;;;;67.60;25.70;;;;;;;0.98;100.00;101216.50;5082394;28;20449;-80
2022/12/03 08:45:54;;;;;;;65.65;26.98;;;;;;;0.97;100.00;101206.44;5091338;28;20067;-80
2022/12/03 08:48:36;;;;;;;58.92;25.23;;;;;;;1.02;100.00;101208.03;5090151;28;20024;-81
2022/12/03 08:51:13;;;;;;;61.05;25.85;;;;;;;1.08;100.00;101208.44;5051903;28;20036;-78
2022/12/03 08:53:45;;;;;;;68.10;26.33;;;;;;;1.07;100.00;101207.63;5103844;28;20551;-78
2022/12/03 08:56:25;;;;;;;61.20;24.83;;;;;;;1.13;100.00;101219.28;5076475;28;20491;-80
2022/12/03 08:58:55;;;;;;;63.50;25.75;;;;;;;1.19;100.00;101215.66;5076199;28;20078;-81
2022/12/03 09:01:44;;;;;;;66.90;26.35;;;;;;;1.33;100.00;101218.41;5046346;28;20094;-77
2022/12/03 09:04:24;;;;;;;61.90;24.98;;;;;;;1.53;100.00;101232.03;5101939;28;20499;-76
2022/12/03 09:06:52;;;;;;;65.50;27.05;;;;;;;1.68;100.00;101223.09;5073617;28;20040;-77
2022/12/03 09:09:21;;;;;;;67.57;26.15;;;;;;;1.79;100.00;101226.69;5085530;28;20135;-79
2022/12/03 09:11:48;;;;;;;59.17;25.90;;;;;;;1.87;100.00;101228.25;5098182;28;20484;-79
2022/12/03 09:14:22;;;;;;;65.90;26.55;;;;;;;1.91;100.00;101226.19;5096213;28;20036;-81
2022/12/03 09:16:54;;;;;;;57.15;27.05;;;;;;;1.95;100.00;101212.09;5041122;28;20041;-80
2022/12/03 09:19:22;;;;;;;61.30;26.60;;;;;;;1.94;100.00;101198.44;5086511;28;20051;-77
2022/12/03 09:21:49;;;;;;;62.65;27.20;;;;;;;2.04;100.00;101220.91;5095322;28;20111;-76
2022/12/03 09:24:15;;;;;;;69.90;27.83;;;;;;;2.01;100.00;101220.91;5096318;28;20024;-78
2022/12/03 09:26:42;;;;;;;64.60;29.33;;;;;;;2.04;100.00;101218.09;5042403;28;20388;-87
2022/12/03 09:29:12;;;;;;;72.40;28.83;;;;;;;2.15;100.00;101204.72;5095164;28;20036;-78
2022/12/03 09:31:38;;;;;;;67.50;28.40;;;;;;;2.24;100.00;101210.69;5091297;28;20021;-80
2022/12/03 09:34:26;;;;;;;73.63;27.23;;;;;;;2.27;100.00;101214.72;5085293;28;20040;-82
2022/12/03 09:36:52;;;;;;;67.97;26.85;;;;;;;2.17;100.00;101205.13;5086100;28;20024;-81
2022/12/03 09:39:17;;;;;;;64.43;28.70;;;;;;;2.22;100.00;101220.78;5068997;28;20043;-79
2022/12/03 09:41:45;;;;;;;68.93;27.20;;;;;;;2.28;100.00;101217.13;5092553;28;20043;-76
2022/12/03 09:44:14;;;;;;;66.15;26.35;;;;;;;2.24;100.00;101209.91;5078172;28;20103;-77
2022/12/03 09:46:41;;;;;;;62.72;26.17;;;;;;;2.22;100.00;101218.78;5077054;28;20562;-82
2022/12/03 09:49:09;;;;;;;70.75;26.33;;;;;;;2.23;100.00;101214.75;5095271;28;20028;-76
2022/12/03 09:51:42;;;;;;;59.00;24.75;;;;;;;2.23;100.00;101217.56;5072947;28;20504;-76
2022/12/03 09:54:15;;;;;;;58.60;25.10;;;;;;;2.14;100.00;101207.97;5084411;28;20020;-80
2022/12/03 09:56:40;;;;;;;64.50;26.05;;;;;;;2.12;100.00;101210.38;5082864;28;20043;-79
2022/12/03 09:59:17;;;;;;;62.85;26.83;;;;;;;2.23;100.00;101206.28;5095457;28;20035;-74
2022/12/03 10:01:57;;;;;;;59.95;25.02;;;;;;;2.29;100.00;101212.28;5063489;28;20178;-78
2022/12/03 10:04:29;;;;;;;55.45;24.10;;;;;;;2.34;100.00;101206.97;5038814;28;20043;-79
2022/12/03 10:06:55;;;;;;;;;;;;;;;2.42;100.00;101204.94;5075761;28;20023;-79
2022/12/03 10:09:26;;;;;;;58.03;24.40;;;;;;;2.41;100.00;101205.34;5078838;28;20325;-80
2022/12/03 10:11:54;;;;;;;;;;;;;;;2.34;100.00;101209.03;5080839;28;20040;-79
2022/12/03 10:14:24;;;;;;;58.30;23.15;;;;;;;2.33;100.00;101205.41;5073363;28;20433;-80
2022/12/03 10:16:50;;;;;;;59.15;24.42;;;;;;;2.27;100.00;101204.22;5079245;28;20436;-79
2022/12/03 10:19:30;;;;;;;72.13;26.85;;;;;;;2.27;100.00;101212.69;5077951;28;20040;-80
2022/12/03 10:22:24;;;;;;;64.25;26.20;;;;;;;2.27;100.00;101197.78;5010390;28;20046;-79
2022/12/03 10:25:13;;;;;;;65.65;26.20;;;;;;;2.24;100.00;101207.09;5095252;28;20088;-81
2022/12/03 10:27:39;;;;;;;58.92;26.33;;;;;;;2.22;100.00;101199.03;5078916;28;20040;-81
2022/12/03 10:30:27;;;;;;;64.45;27.45;;;;;;;2.23;100.00;101197.81;5073739;28;20067;-79
2022/12/03 10:33:01;;;;;;;60.80;26.10;;;;;;;2.24;100.00;101195.81;5093081;28;20564;-81
2022/12/03 10:35:39;;;;;;;65.07;28.67;;;;;;;2.20;100.00;101195.81;5063701;28;20043;-81
2022/12/03 10:38:23;;;;;;;59.60;25.73;;;;;;;2.23;100.00;101191.38;5079287;28;20079;-79
2022/12/03 10:41:27;;;;;;;64.32;26.65;;;;;;;2.24;100.00;101193.75;5050286;28;20034;-78
2022/12/03 10:44:06;;;;;;;64.00;26.55;;;;;;;2.22;100.00;101181.31;5096875;28;20385;-83
2022/12/03 10:46:34;;;;;;;65.97;27.02;;;;;;;2.21;100.00;101186.16;5074796;28;20032;-77
2022/12/03 10:49:18;;;;;;;66.68;25.73;;;;;;;2.15;100.00;101179.34;5094576;28;20066;-75
2022/12/03 10:51:47;;;;;;;62.45;28.67;;;;;;;2.13;100.00;101178.16;5074354;28;20079;-76
2022/12/03 10:54:23;;;;;;;69.90;28.17;;;;;;;2.13;100.00;101176.16;5075026;28;20031;-77
2022/12/03 10:56:58;;;;;;;69.82;28.92;;;;;;;2.17;100.00;101162.81;5075002;28;20461;-76
2022/12/03 10:59:40;;;;;;;66.65;25.35;;;;;;;2.16;100.00;101154.78;5092309;28;20134;-77
2022/12/03 11:02:35;;;;;;;54.38;25.33;;;;;;;2.33;100.00;101165.13;5058488;28;20066;-78
2022/12/03 11:05:06;;;;;;;61.42;27.80;;;;;;;2.40;100.00;101158.59;5074403;28;20055;-77
2022/12/03 11:07:40;;;;;;;61.70;26.88;;;;;;;2.44;100.00;101162.22;5087918;28;20457;-77
2022/12/03 11:10:14;;;;;;;66.05;26.50;;;;;;;2.40;100.00;101164.25;5056451;28;20496;-77
2022/12/03 11:12:41;;;;;;;72.63;31.48;;;;;;;2.25;100.00;101161.53;5091676;28;20453;-75
2022/12/03 11:15:16;;;;;;;64.78;28.92;;;;;;;2.20;100.00;101158.34;5077226;28;20051;-76
2022/12/03 11:17:51;;;;;;;65.22;29.15;;;;;;;2.21;100.00;101159.97;5063692;28;20046;-79
2022/12/03 11:20:28;;;;;;;74.80;31.20;;;;;;;2.27;100.00;101158.31;5090743;28;20032;-80
2022/12/03 11:23:23;;;;;;;66.78;28.70;;;;;;;2.33;100.00;101148.19;5092238;28;20590;-77
2022/12/03 11:25:49;;;;;;;70.72;29.30;;;;;;;2.37;100.00;101153.81;5076989;28;20054;-83
2022/12/03 11:28:20;;;;;;;71.70;29.17;;;;;;;2.44;100.00;101148.13;5085928;28;20071;-81
2022/12/03 11:30:52;;;;;;;74.97;30.08;;;;;;;2.44;100.00;101143.25;5097325;28;20490;-78
2022/12/03 11:33:23;;;;;;;75.97;29.30;;;;;;;2.47;100.00;101139.63;5102835;28;20365;-76